createdAt,value
2022-11-06T00:06:52.525Z,101417.50
2022-11-06T00:13:54.124Z,101424.06
2022-11-06T00:20:55.698Z,101416.16
2022-11-06T00:27:57.322Z,101412.91
2022-11-06T00:34:58.877Z,101410.38
2022-11-06T00:42:00.450Z,101415.81
2022-11-06T00:49:02.053Z,101412.31
2022-11-06T00:56:15.494Z,101414.50
2022-11-06T01:03:17.074Z,101411.84
2022-11-06T01:10:18.796Z,101410.25
2022-11-06T01:17:20.372Z,101407.78
2022-11-06T01:24:24.701Z,101397.34
2022-11-06T01:31:27.842Z,101399.31
2022-11-06T01:38:29.489Z,101388.53
2022-11-06T01:45:35.201Z,101380.66
2022-11-06T01:52:36.969Z,101376.16
2022-11-06T01:59:41.596Z,101363.88
2022-11-06T02:06:43.147Z,101365.66
2022-11-06T02:13:53.609Z,101354.97
2022-11-06T02:21:16.465Z,101349.53
2022-11-06T02:28:23.340Z,101348.91
2022-11-06T02:35:51.265Z,101330.03
2022-11-06T02:42:53.961Z,101334.78
2022-11-06T02:50:05.563Z,101341.09
2022-11-06T02:57:08.917Z,101342.75
2022-11-06T03:04:26.906Z,101341.03
2022-11-06T03:11:29.846Z,101327.66
2022-11-06T03:18:51.070Z,101334.75
2022-11-06T03:25:53.281Z,101326.97
2022-11-06T03:33:03.968Z,101326.19
2022-11-06T03:40:06.200Z,101337.88
2022-11-06T03:47:18.004Z,101327.34
2022-11-06T03:54:44.558Z,101319.41
2022-11-06T04:01:46.264Z,101319.50
2022-11-06T04:09:06.403Z,101312.81
2022-11-06T04:16:08.622Z,101309.31
2022-11-06T04:23:14.271Z,101310.13
2022-11-06T04:30:17.715Z,101306.69
2022-11-06T04:37:26.047Z,101303.56
2022-11-06T04:44:41.845Z,101303.56
2022-11-06T04:51:43.960Z,101305.47
2022-11-06T04:58:45.508Z,101303.69
2022-11-06T05:05:47.077Z,101287.00
2022-11-06T05:12:48.649Z,101286.06
2022-11-06T05:19:50.242Z,101292.56
2022-11-06T05:26:57.910Z,101297.94
2022-11-06T05:34:00.814Z,101287.22
2022-11-06T05:41:02.438Z,101281.00
2022-11-06T05:48:04.256Z,101286.50
2022-11-06T05:55:10.165Z,101290.19
2022-11-06T06:02:15.075Z,101286.69
2022-11-06T06:09:16.693Z,101291.31
2022-11-06T06:16:18.271Z,101294.06
2022-11-06T06:23:19.835Z,101297.56
2022-11-06T06:30:22.101Z,101291.31
2022-11-06T06:37:23.785Z,101305.75
2022-11-06T06:44:25.366Z,101302.97
2022-11-06T06:51:26.933Z,101310.22
2022-11-06T06:58:29.247Z,101310.25
2022-11-06T07:05:30.909Z,101323.41
2022-11-06T07:12:32.520Z,101311.63
2022-11-06T07:19:34.104Z,101308.78
2022-11-06T07:26:36.714Z,101316.63
2022-11-06T07:33:38.307Z,101316.25
2022-11-06T07:40:39.972Z,101300.06
2022-11-06T07:47:41.531Z,101309.22
2022-11-06T07:54:43.109Z,101303.69
2022-11-06T08:01:44.744Z,101300.41
2022-11-06T08:08:46.410Z,101299.25
2022-11-06T08:15:48.034Z,101295.69
2022-11-06T08:22:49.594Z,101282.66
2022-11-06T08:29:51.222Z,101284.94
2022-11-06T08:36:53.924Z,101285.63
2022-11-06T08:43:55.546Z,101277.47
2022-11-06T08:50:57.192Z,101265.56
2022-11-06T08:57:58.780Z,101249.81
2022-11-06T09:05:00.335Z,101257.44
2022-11-06T09:12:02.096Z,101261.53
2022-11-06T09:19:03.678Z,101251.13
2022-11-06T09:26:05.285Z,101249.81
2022-11-06T09:33:10.718Z,101250.16
2022-11-06T09:40:32.322Z,101253.06
2022-11-06T09:47:35.671Z,101250.47
2022-11-06T09:54:56.140Z,101248.44
2022-11-06T10:02:01.381Z,101255.66
2022-11-06T10:09:03.716Z,101243.81
2022-11-06T10:16:17.458Z,101233.34
2022-11-06T10:24:07.236Z,101227.09
2022-11-06T10:31:11.378Z,101209.41
2022-11-06T10:38:18.270Z,101207.22
2022-11-06T10:45:19.938Z,101194.22
2022-11-06T10:52:36.322Z,101187.66
2022-11-06T10:59:37.950Z,101175.22
2022-11-06T11:06:40.452Z,101162.66
2022-11-06T11:13:49.103Z,101160.13
2022-11-06T11:21:01.435Z,101152.25
2022-11-06T11:28:05.038Z,101142.72
2022-11-06T11:35:09.250Z,101134.41
2022-11-06T11:42:23.880Z,101124.19
2022-11-06T11:49:33.022Z,101122.28
2022-11-06T11:57:04.143Z,101118.13
2022-11-06T12:03:56.542Z,101106.66
2022-11-06T12:11:03.555Z,101101.31
2022-11-06T12:18:14.048Z,101078.38
2022-11-06T12:25:48.115Z,101069.06
2022-11-06T12:33:01.802Z,101071.94
2022-11-06T12:40:24.830Z,101061.75
2022-11-06T12:47:45.501Z,101048.09
2022-11-06T12:54:52.922Z,101059.50
2022-11-06T13:02:01.007Z,101051.94
2022-11-06T13:09:13.871Z,101034.78
2022-11-06T13:16:29.809Z,101033.81
2022-11-06T13:23:35.320Z,101038.94
2022-11-06T13:30:37.194Z,101024.31
2022-11-06T13:37:39.910Z,101013.09
2022-11-06T13:44:41.490Z,100992.97
2022-11-06T13:52:03.242Z,100989.91
2022-11-06T13:59:35.295Z,100978.50
2022-11-06T14:06:36.865Z,100983.81
2022-11-06T14:13:38.577Z,100983.72
2022-11-06T14:20:40.183Z,100975.34
2022-11-06T14:27:41.754Z,100975.63
2022-11-06T14:34:43.357Z,100965.28
2022-11-06T14:41:44.864Z,100954.41
2022-11-06T14:48:48.072Z,100951.81
2022-11-06T14:56:08.291Z,100942.22
2022-11-06T15:03:24.782Z,100928.41
2022-11-06T15:10:44.836Z,100921.38
2022-11-06T15:17:46.514Z,100922.78
2022-11-06T15:24:50.388Z,100919.41
2022-11-06T15:32:05.869Z,100917.38
2022-11-06T15:39:29.145Z,100922.34
2022-11-06T15:46:30.726Z,100923.28
2022-11-06T15:53:36.899Z,100922.53
2022-11-06T16:00:41.544Z,100907.16
2022-11-06T16:07:44.633Z,100896.59
2022-11-06T16:14:46.320Z,100881.75
2022-11-06T16:21:56.097Z,100871.31
2022-11-06T16:28:57.930Z,100866.63
2022-11-06T16:36:10.652Z,100861.56
2022-11-06T16:43:15.969Z,100857.50
2022-11-06T16:50:45.913Z,100855.16
2022-11-06T16:57:48.669Z,100854.63
2022-11-06T17:04:50.227Z,100865.97
2022-11-06T17:11:55.700Z,100860.66
2022-11-06T17:18:57.338Z,100865.44
2022-11-06T17:26:12.958Z,100865.72
2022-11-06T17:33:14.997Z,100861.38
2022-11-06T17:40:16.894Z,100851.09
2022-11-06T17:47:18.437Z,100837.28
2022-11-06T17:54:21.460Z,100844.63
2022-11-06T18:01:23.143Z,100848.56
2022-11-06T18:08:24.824Z,100847.00
2022-11-06T18:15:26.403Z,100840.53
2022-11-06T18:22:28.071Z,100841.56
2022-11-06T18:29:29.641Z,100841.03
2022-11-06T18:36:36.412Z,100837.13
2022-11-06T18:43:38.023Z,100826.72
2022-11-06T18:50:39.621Z,100818.47
2022-11-06T18:57:41.249Z,100816.28
2022-11-06T19:04:42.905Z,100824.25
2022-11-06T19:11:44.606Z,100832.50
2022-11-06T19:18:46.477Z,100825.47
2022-11-06T19:25:58.793Z,100817.56
2022-11-06T19:33:06.127Z,100813.97
2022-11-06T19:40:08.041Z,100828.63
2022-11-06T19:47:09.610Z,100820.78
2022-11-06T19:54:11.341Z,100820.38
2022-11-06T20:01:13.359Z,100819.66
2022-11-06T20:08:15.100Z,100813.47
2022-11-06T20:15:20.003Z,100815.59
2022-11-06T20:22:25.407Z,100804.69
2022-11-06T20:29:27.524Z,100802.09
2022-11-06T20:36:30.145Z,100805.34
2022-11-06T20:43:31.720Z,100792.22
2022-11-06T20:50:33.357Z,100780.72
2022-11-06T20:57:34.923Z,100762.06
2022-11-06T21:04:36.477Z,100747.84
2022-11-06T21:11:38.061Z,100738.28
2022-11-06T21:18:40.628Z,100732.16
2022-11-06T21:25:45.246Z,100739.25
2022-11-06T21:32:47.068Z,100722.66
2022-11-06T21:39:48.638Z,100716.50
2022-11-06T21:46:50.302Z,100713.31
2022-11-06T21:54:10.327Z,100701.50
2022-11-06T22:01:11.991Z,100702.38
2022-11-06T22:08:13.974Z,100701.09
2022-11-06T22:15:15.812Z,100685.25
2022-11-06T22:22:17.373Z,100688.25
2022-11-06T22:29:18.924Z,100687.88
2022-11-06T22:36:20.617Z,100673.63
2022-11-06T22:43:22.222Z,100676.69
2022-11-06T22:50:24.233Z,100674.66
2022-11-06T22:57:25.840Z,100666.53
2022-11-06T23:04:27.423Z,100676.38
2022-11-06T23:11:30.027Z,100679.81
2022-11-06T23:18:31.761Z,100675.09
2022-11-06T23:25:33.456Z,100678.16
2022-11-06T23:32:35.575Z,100679.00
2022-11-06T23:39:37.204Z,100672.59
2022-11-06T23:46:38.791Z,100660.38
2022-11-06T23:53:40.471Z,100664.81
